Aérodrome :
LOGIN :

S'inscrire | Disclaimer

   EN    FR    IT 

 










Légende :    VFR   VFR Marginal   IFR   IFR Intensif   IFR Très Intensif
Visi : 
Plafond : 
>= 8 km
>= 3000ft
5 à 8 km
1000 à 3000 ft
1500m à 5 km
500 à 1000 ft
800 à 1500m
200 à 500 ft
< 800m
< 200 ft
Symboles :   Orages  Brouillard  Fortes neiges  Fortes précipitations  Vent > 20 kt
SIGMETs :   Divers  Orages  Givrage  Turbulence  Onde Orograph.  Cendres Volcan.







- Altitude de l'aérodrome : 200 ft


EBBL - Klein Brogel AB

DERNIER METAR :
  • 162325Z AUTO VRB01KT 0200 FG NCD 15/15 Q1018 RED

METARs EXPIRÉS :
  • 162319Z AUTO VRB01KT 3200 BR FEW043/// 16/15 Q1018 YLO
  • 162305Z AUTO VRB01KT 0750 BR FEW043/// 16/15 Q1019 RED
  • 162303Z AUTO VRB01KT 2500 BR FEW043/// 16/15 Q1019 YLO
  • 162255Z AUTO VRB01KT 8000 FEW043/// SCT063/// 16/15 Q1019 BLU
  • 162233Z AUTO VRB01KT 7000 BKN046/// 17/15 Q1019 WHT
  • 162225Z AUTO VRB01KT 9999 BKN046/// 17/16 Q1019 BLU
  • 162155Z AUTO VRB01KT 8000 BKN044/// 16/15 Q1019 BLU
  • 162136Z AUTO VRB01KT 6000 FEW041/// 17/15 Q1019 WHT
  • 162125Z AUTO 00000KT 9999 SCT042/// BKN059/// 17/15 Q1019 BLU
  • 162055Z AUTO VRB01KT 9999 SCT043/// 17/15 Q1019 BLU
  • 162025Z AUTO VRB01KT 9999 SCT043/// 18/15 Q1020 BLU

TAF TAF EBBL
Valide du 16 à 19h jusqu'au 17 à 07h UTC


161541Z 1619/1707 27004KT 9999 FEW040 BKN160
TEMPO 1621/1701 SKC
BECMG 1622/1624 16003KT
BECMG 1705/1707 20008KT
Pas de NOTAMs connus pour ce terrain.



MET'MAP, la Météo Aéronautique d'un coup d'oeil ! - Copyright ORBIFLY Décembre 2007 - Disclaimer

ORBIFLY MET'MAP TEAM :

Programmation & Développement : Alexandra Zaïnal
Conception & Développement : Baudouin d'Aumeries
Co-Programmation & Développement : Marc-Olivier Méhu
Soutien technique & logistique : Manuel Goepfert

Contact : metmap@orbifly.com




SOURCES & CREDITS :

   NOAA